createdAt,value
2018-12-29T00:02:09.558Z,18.00
2018-12-29T00:04:38.013Z,18.45
2018-12-29T00:07:06.661Z,17.32
2018-12-29T00:09:35.066Z,19.00
2018-12-29T00:12:03.709Z,19.80
2018-12-29T00:14:32.473Z,16.40
2018-12-29T00:17:00.867Z,18.57
2018-12-29T00:19:29.598Z,16.12
2018-12-29T00:21:58.237Z,15.68
2018-12-29T00:24:27.555Z,17.48
2018-12-29T00:26:56.201Z,16.17
2018-12-29T00:29:25.578Z,17.45
2018-12-29T00:31:54.026Z,16.07
2018-12-29T00:34:22.660Z,16.15
2018-12-29T00:36:51.150Z,16.52
2018-12-29T00:39:19.594Z,16.35
2018-12-29T00:41:47.998Z,17.20
2018-12-29T00:44:16.404Z,16.40
2018-12-29T00:46:50.991Z,16.95
2018-12-29T00:49:19.394Z,16.23
2018-12-29T00:51:47.798Z,15.85
2018-12-29T00:54:16.190Z,16.27
2018-12-29T00:56:44.995Z,17.15
2018-12-29T00:59:19.181Z,15.63
2018-12-29T01:01:47.828Z,16.23
2018-12-29T01:04:17.166Z,17.02
2018-12-29T01:06:45.577Z,15.88
2018-12-29T01:09:13.972Z,15.90
2018-12-29T01:11:42.378Z,16.55
2018-12-29T01:14:13.764Z,16.10
2018-12-29T01:16:42.186Z,16.62
2018-12-29T01:19:10.597Z,17.40
2018-12-29T01:21:38.993Z,16.15
2018-12-29T01:24:07.385Z,16.50
2018-12-29T01:26:35.795Z,15.95
2018-12-29T01:29:04.194Z,15.98
2018-12-29T01:31:32.727Z,17.60
2018-12-29T01:34:01.182Z,17.17
2018-12-29T01:36:30.594Z,16.25
2018-12-29T01:38:59.041Z,16.55
2018-12-29T01:41:35.403Z,15.43
2018-12-29T01:44:03.804Z,15.25
2018-12-29T01:46:32.217Z,17.75
2018-12-29T01:49:00.611Z,16.73
2018-12-29T01:51:29.022Z,15.55
2018-12-29T01:53:57.425Z,16.37
2018-12-29T01:56:25.811Z,16.10
2018-12-29T01:58:55.146Z,17.15
2018-12-29T02:01:23.537Z,16.87
2018-12-29T02:03:52.195Z,15.30
2018-12-29T02:06:20.827Z,16.60
2018-12-29T02:08:49.559Z,16.30
2018-12-29T02:11:17.947Z,15.80
2018-12-29T02:13:46.349Z,15.80
2018-12-29T02:16:14.757Z,17.00
2018-12-29T02:18:43.161Z,17.62
2018-12-29T02:21:11.690Z,15.68
2018-12-29T02:23:40.087Z,16.97
2018-12-29T02:26:08.483Z,17.35
2018-12-29T02:28:36.881Z,15.13
2018-12-29T02:31:05.283Z,16.73
2018-12-29T02:33:39.516Z,17.50
2018-12-29T02:36:07.920Z,17.30
2018-12-29T02:38:36.378Z,16.30
2018-12-29T02:41:04.914Z,16.55
2018-12-29T02:43:33.321Z,16.05
2018-12-29T02:46:01.715Z,16.77
2018-12-29T02:48:30.116Z,17.40
2018-12-29T02:50:58.516Z,16.45
2018-12-29T02:53:26.927Z,17.75
2018-12-29T02:55:55.509Z,17.35
2018-12-29T02:58:23.980Z,16.67
2018-12-29T03:00:52.378Z,16.87
2018-12-29T03:03:21.031Z,17.75
2018-12-29T03:05:55.727Z,17.02
2018-12-29T03:08:24.259Z,17.50
2018-12-29T03:10:52.967Z,16.35
2018-12-29T03:13:21.656Z,16.75
2018-12-29T03:15:50.062Z,16.45
2018-12-29T03:18:18.458Z,16.70
2018-12-29T03:20:46.852Z,15.85
2018-12-29T03:23:15.430Z,16.17
2018-12-29T03:25:43.816Z,17.23
2018-12-29T03:28:12.299Z,16.87
2018-12-29T03:30:40.768Z,16.20
2018-12-29T03:33:09.160Z,14.83
2018-12-29T03:35:37.558Z,15.18
2018-12-29T03:38:05.949Z,15.23
2018-12-29T03:40:34.368Z,16.00
2018-12-29T03:43:02.816Z,16.37
2018-12-29T03:45:31.545Z,15.75
2018-12-29T03:47:59.925Z,18.35
2018-12-29T03:50:28.330Z,15.10
2018-12-29T03:52:58.269Z,17.30
2018-12-29T03:55:26.700Z,16.75
2018-12-29T03:57:55.095Z,17.00
2018-12-29T04:00:23.491Z,16.80
2018-12-29T04:02:51.943Z,19.23
2018-12-29T04:05:20.349Z,18.85
2018-12-29T04:07:48.742Z,17.32
2018-12-29T04:10:17.175Z,18.30
2018-12-29T04:12:47.809Z,18.65
2018-12-29T04:15:16.238Z,17.65
2018-12-29T04:17:44.626Z,17.42
2018-12-29T04:20:13.042Z,16.82
2018-12-29T04:22:41.796Z,17.92
2018-12-29T04:25:10.249Z,18.92
2018-12-29T04:27:38.649Z,18.62
2018-12-29T04:30:07.284Z,16.25
2018-12-29T04:32:35.677Z,20.02
2018-12-29T04:35:05.012Z,19.75
2018-12-29T04:37:33.414Z,19.85
2018-12-29T04:40:01.810Z,15.98
2018-12-29T04:42:30.209Z,16.65
2018-12-29T04:44:58.615Z,17.98
2018-12-29T04:47:27.014Z,18.85
2018-12-29T04:49:55.714Z,17.62
2018-12-29T04:52:24.109Z,16.73
2018-12-29T04:54:52.792Z,19.27
2018-12-29T04:57:21.261Z,17.80
2018-12-29T04:59:49.654Z,19.92
2018-12-29T05:02:18.634Z,22.70
2018-12-29T05:04:47.165Z,24.40
2018-12-29T05:07:15.571Z,18.85
2018-12-29T05:09:43.970Z,19.50
2018-12-29T05:12:12.555Z,17.48
2018-12-29T05:14:40.934Z,18.48
2018-12-29T05:17:09.360Z,18.70
2018-12-29T05:19:37.759Z,17.80
2018-12-29T05:22:06.162Z,17.82
2018-12-29T05:24:34.645Z,18.85
2018-12-29T05:27:03.084Z,17.82
2018-12-29T05:29:31.499Z,18.70
2018-12-29T05:32:00.134Z,17.75
2018-12-29T05:34:28.585Z,17.62
2018-12-29T05:36:56.981Z,17.90
2018-12-29T05:39:25.410Z,18.30
2018-12-29T05:41:53.803Z,17.90
2018-12-29T05:44:22.202Z,18.60
2018-12-29T05:46:50.595Z,18.30
2018-12-29T05:49:19.235Z,17.48
2018-12-29T05:51:47.630Z,20.57
2018-12-29T05:54:16.591Z,18.57
2018-12-29T05:56:44.982Z,19.77
2018-12-29T05:59:13.392Z,18.12
2018-12-29T06:01:42.021Z,18.27
2018-12-29T06:04:10.490Z,17.35
2018-12-29T06:06:38.891Z,19.62
2018-12-29T06:09:07.289Z,19.02
2018-12-29T06:11:35.695Z,17.80
2018-12-29T06:14:04.358Z,19.70
2018-12-29T06:16:32.757Z,18.12
2018-12-29T06:19:01.190Z,16.60
2018-12-29T06:21:29.589Z,16.75
2018-12-29T06:23:58.231Z,18.65
2018-12-29T06:26:26.625Z,18.37
2018-12-29T06:28:55.038Z,19.60
2018-12-29T06:31:23.425Z,17.92
2018-12-29T06:33:51.826Z,18.95
2018-12-29T06:36:20.225Z,18.00
2018-12-29T06:38:48.906Z,16.45
2018-12-29T06:41:17.538Z,19.17
2018-12-29T06:43:45.944Z,19.82
2018-12-29T06:46:14.600Z,17.40
2018-12-29T06:48:43.005Z,17.50
2018-12-29T06:51:11.414Z,17.55
2018-12-29T06:53:39.811Z,18.70
2018-12-29T06:56:08.223Z,18.30
2018-12-29T06:58:36.645Z,18.42
2018-12-29T07:01:05.053Z,18.75
2018-12-29T07:03:33.453Z,17.12
2018-12-29T07:06:01.853Z,18.35
2018-12-29T07:08:30.260Z,17.75
2018-12-29T07:10:58.657Z,19.52
2018-12-29T07:13:27.055Z,17.32
2018-12-29T07:15:55.454Z,20.75
2018-12-29T07:18:23.849Z,19.42
2018-12-29T07:20:52.249Z,19.85
2018-12-29T07:23:20.665Z,18.60
2018-12-29T07:25:49.105Z,19.20
2018-12-29T07:28:17.490Z,18.55
2018-12-29T07:30:45.889Z,18.92
2018-12-29T07:33:29.871Z,19.07
2018-12-29T07:35:58.258Z,18.62
2018-12-29T07:38:26.654Z,19.90
2018-12-29T07:40:55.070Z,19.25
2018-12-29T07:43:23.457Z,20.40
2018-12-29T07:45:52.114Z,18.80
2018-12-29T07:48:29.037Z,19.27
2018-12-29T07:50:57.449Z,18.98
2018-12-29T07:53:26.115Z,18.15
2018-12-29T07:55:54.515Z,19.00
2018-12-29T07:58:23.167Z,18.77
2018-12-29T08:00:51.571Z,17.17
2018-12-29T08:03:19.973Z,20.35
2018-12-29T08:05:48.378Z,17.15
2018-12-29T08:08:16.774Z,19.52
2018-12-29T08:10:45.177Z,18.10
2018-12-29T08:13:13.828Z,18.60
2018-12-29T08:15:42.246Z,19.48
2018-12-29T08:18:10.654Z,18.85
2018-12-29T08:20:39.291Z,18.15
2018-12-29T08:23:07.694Z,19.90
2018-12-29T08:25:36.110Z,18.60
2018-12-29T08:28:04.502Z,19.60
2018-12-29T08:30:33.142Z,19.87
2018-12-29T08:33:01.534Z,18.73
2018-12-29T08:35:29.941Z,19.75
2018-12-29T08:37:58.511Z,18.87
2018-12-29T08:40:26.909Z,19.62
2018-12-29T08:43:01.078Z,19.57
2018-12-29T08:45:29.515Z,19.57
2018-12-29T08:47:57.922Z,18.45
2018-12-29T08:50:26.441Z,19.37
2018-12-29T08:52:54.864Z,19.32
2018-12-29T08:55:23.647Z,18.62
2018-12-29T08:57:52.343Z,16.07
2018-12-29T09:00:20.746Z,18.70
2018-12-29T09:02:56.906Z,16.65
2018-12-29T09:05:25.302Z,17.27
2018-12-29T09:07:53.715Z,17.55
2018-12-29T09:10:22.333Z,17.45
2018-12-29T09:12:50.737Z,18.37
2018-12-29T09:15:19.142Z,18.00
2018-12-29T09:17:48.364Z,18.32
2018-12-29T09:20:16.761Z,16.57
2018-12-29T09:22:45.190Z,16.27
2018-12-29T09:25:13.578Z,16.57
2018-12-29T09:27:41.982Z,19.32
2018-12-29T09:30:10.719Z,17.20
2018-12-29T09:32:39.189Z,17.82
2018-12-29T09:35:07.590Z,16.25
2018-12-29T09:37:37.172Z,18.15
2018-12-29T09:40:06.151Z,19.10
2018-12-29T09:42:34.602Z,17.17
2018-12-29T09:45:03.321Z,15.48
2018-12-29T09:47:33.933Z,18.17
2018-12-29T09:50:02.332Z,17.30
2018-12-29T09:52:30.731Z,16.35
2018-12-29T09:54:59.135Z,17.32
2018-12-29T09:57:27.550Z,16.52
2018-12-29T09:59:55.938Z,15.98
2018-12-29T10:02:24.403Z,18.65
2018-12-29T10:04:52.934Z,16.48
2018-12-29T10:07:21.559Z,16.02
2018-12-29T10:09:50.199Z,17.82
2018-12-29T10:12:18.612Z,17.05
2018-12-29T10:14:47.013Z,16.65
2018-12-29T10:17:15.410Z,14.58
2018-12-29T10:19:43.807Z,16.00
2018-12-29T10:22:12.210Z,16.97
2018-12-29T10:24:40.926Z,16.30
2018-12-29T10:27:09.323Z,15.70
2018-12-29T10:29:37.739Z,16.42
2018-12-29T10:32:06.135Z,16.67
2018-12-29T10:34:34.534Z,16.87
2018-12-29T10:37:02.933Z,14.90
2018-12-29T10:39:31.341Z,15.88
2018-12-29T10:41:59.735Z,15.60
2018-12-29T10:44:35.562Z,14.47
2018-12-29T10:47:03.959Z,13.55
2018-12-29T10:49:32.587Z,15.15
2018-12-29T10:52:00.984Z,15.45
2018-12-29T10:54:29.390Z,13.53
2018-12-29T10:56:57.793Z,15.15
2018-12-29T10:59:26.462Z,14.25
2018-12-29T11:01:54.873Z,14.60
2018-12-29T11:04:23.277Z,14.00
2018-12-29T11:06:51.700Z,16.60
2018-12-29T11:09:20.346Z,14.38
2018-12-29T11:11:48.754Z,13.72
2018-12-29T11:14:17.145Z,13.50
2018-12-29T11:16:45.567Z,14.40
2018-12-29T11:19:14.195Z,15.30
2018-12-29T11:21:42.605Z,13.32
2018-12-29T11:24:11.082Z,13.45
2018-12-29T11:26:39.726Z,14.13
2018-12-29T11:29:08.134Z,14.50
2018-12-29T11:31:36.541Z,13.98
2018-12-29T11:34:04.975Z,14.73
2018-12-29T11:36:33.623Z,14.33
2018-12-29T11:39:02.094Z,13.95
2018-12-29T11:41:30.493Z,15.43
2018-12-29T11:44:02.507Z,13.45
2018-12-29T11:46:30.924Z,14.23
2018-12-29T11:48:59.550Z,13.60
2018-12-29T11:51:28.037Z,15.20
2018-12-29T11:53:56.441Z,14.85
2018-12-29T11:56:24.843Z,14.70
2018-12-29T11:58:53.247Z,15.43
2018-12-29T12:01:22.015Z,15.83
2018-12-29T12:03:50.415Z,13.25
2018-12-29T12:06:18.806Z,13.08
2018-12-29T12:08:47.443Z,14.75
2018-12-29T12:11:15.868Z,13.32
2018-12-29T12:13:44.749Z,15.98
2018-12-29T12:16:13.157Z,15.32
2018-12-29T12:18:41.564Z,13.22
2018-12-29T12:21:09.954Z,15.15
2018-12-29T12:23:38.637Z,14.75
2018-12-29T12:26:07.411Z,14.87
2018-12-29T12:28:36.079Z,14.18
2018-12-29T12:31:04.472Z,14.95
2018-12-29T12:33:32.879Z,15.75
2018-12-29T12:36:01.285Z,15.10
2018-12-29T12:38:29.706Z,13.70
2018-12-29T12:40:58.356Z,13.62
2018-12-29T12:43:26.763Z,16.77
2018-12-29T12:45:55.532Z,13.98
2018-12-29T12:48:23.937Z,14.38
2018-12-29T12:50:52.655Z,16.32
2018-12-29T12:53:21.130Z,13.35
2018-12-29T12:55:49.537Z,15.20
2018-12-29T12:58:18.653Z,14.75
2018-12-29T13:00:47.433Z,15.32
2018-12-29T13:03:16.365Z,15.83
2018-12-29T13:05:44.786Z,15.58
2018-12-29T13:08:13.430Z,14.35
2018-12-29T13:10:41.822Z,15.43
2018-12-29T13:13:10.265Z,14.80
2018-12-29T13:15:38.903Z,14.13
2018-12-29T13:18:12.885Z,14.93
2018-12-29T13:20:37.436Z,15.03
2018-12-29T13:23:05.832Z,14.05
2018-12-29T13:25:34.248Z,14.83
2018-12-29T13:28:02.625Z,14.95
2018-12-29T13:30:31.342Z,14.47
2018-12-29T13:33:00.072Z,14.85
2018-12-29T13:35:28.477Z,14.20
2018-12-29T13:37:56.870Z,14.65
2018-12-29T13:40:25.266Z,13.80
2018-12-29T13:43:02.107Z,15.72
2018-12-29T13:45:30.763Z,14.78
2018-12-29T13:47:59.154Z,13.13
2018-12-29T13:50:27.551Z,13.98
2018-12-29T13:52:55.944Z,15.10
2018-12-29T13:55:24.587Z,14.80
2018-12-29T13:57:53.219Z,15.08
2018-12-29T14:00:21.658Z,15.70
2018-12-29T14:02:50.306Z,14.45
2018-12-29T14:05:18.962Z,14.78
2018-12-29T14:07:47.369Z,14.73
2018-12-29T14:10:15.782Z,14.20
2018-12-29T14:12:44.247Z,16.32
2018-12-29T14:15:12.658Z,14.73
2018-12-29T14:17:41.308Z,13.50
2018-12-29T14:20:09.764Z,14.63
2018-12-29T14:22:38.182Z,14.50
2018-12-29T14:25:06.585Z,16.75
2018-12-29T14:27:35.068Z,15.63
2018-12-29T14:30:03.856Z,15.23
2018-12-29T14:32:32.520Z,15.68
2018-12-29T14:35:01.160Z,15.72
2018-12-29T14:37:29.559Z,16.12
2018-12-29T14:39:57.970Z,15.03
2018-12-29T14:42:26.447Z,16.32
2018-12-29T14:44:54.841Z,15.60
2018-12-29T14:47:23.250Z,17.70
2018-12-29T14:49:51.643Z,16.80
2018-12-29T14:52:20.045Z,16.42
2018-12-29T14:54:48.460Z,14.87
2018-12-29T14:57:16.877Z,16.45
2018-12-29T14:59:49.281Z,16.27
2018-12-29T15:02:17.672Z,16.77
2018-12-29T15:04:46.071Z,16.23
2018-12-29T15:07:14.947Z,17.17
2018-12-29T15:09:43.603Z,16.20
2018-12-29T15:12:12.000Z,17.80
2018-12-29T15:14:41.265Z,17.32
2018-12-29T15:17:09.809Z,15.45
2018-12-29T15:19:38.207Z,17.23
2018-12-29T15:22:06.844Z,16.32
2018-12-29T15:24:35.609Z,17.62
2018-12-29T15:27:04.028Z,17.23
2018-12-29T15:29:32.427Z,17.52
2018-12-29T15:32:01.117Z,15.25
2018-12-29T15:34:29.534Z,17.60
2018-12-29T15:36:58.006Z,18.12
2018-12-29T15:39:26.790Z,16.65
2018-12-29T15:41:55.186Z,16.87
2018-12-29T15:44:23.635Z,17.27
2018-12-29T15:46:52.410Z,17.10
2018-12-29T15:49:20.822Z,16.40
2018-12-29T15:51:49.302Z,16.37
2018-12-29T15:54:17.739Z,17.20
2018-12-29T15:56:46.148Z,16.70
2018-12-29T15:59:14.562Z,17.65
2018-12-29T16:01:43.210Z,16.82
2018-12-29T16:04:11.621Z,17.73
2018-12-29T16:06:40.098Z,18.45
2018-12-29T16:09:13.514Z,16.23
2018-12-29T16:11:42.539Z,17.67
2018-12-29T16:14:10.946Z,18.07
2018-12-29T16:16:49.683Z,17.15
2018-12-29T16:19:18.182Z,18.85
2018-12-29T16:21:46.629Z,17.70
2018-12-29T16:24:15.422Z,17.77
2018-12-29T16:26:43.826Z,18.35
2018-12-29T16:29:12.474Z,16.30
2018-12-29T16:31:40.947Z,17.57
2018-12-29T16:34:09.742Z,18.30
2018-12-29T16:36:38.146Z,17.80
2018-12-29T16:39:06.725Z,17.07
2018-12-29T16:41:35.118Z,16.10
2018-12-29T16:44:03.521Z,16.77
2018-12-29T16:46:32.474Z,17.70
2018-12-29T16:49:06.699Z,19.42
2018-12-29T16:51:31.242Z,19.75
2018-12-29T16:53:59.660Z,20.70
2018-12-29T16:56:28.703Z,20.52
2018-12-29T16:58:57.114Z,18.82
2018-12-29T17:01:25.589Z,19.35
2018-12-29T17:03:54.326Z,21.10
2018-12-29T17:06:22.759Z,20.40
2018-12-29T17:08:51.157Z,20.30
2018-12-29T17:11:19.567Z,19.80
2018-12-29T17:13:48.378Z,22.32
2018-12-29T17:16:16.777Z,21.65
2018-12-29T17:18:45.194Z,19.23
2018-12-29T17:21:13.785Z,21.15
2018-12-29T17:23:42.177Z,22.27
2018-12-29T17:26:10.836Z,23.77
2018-12-29T17:28:39.482Z,22.95
2018-12-29T17:31:07.884Z,21.95
2018-12-29T17:33:37.313Z,24.18
2018-12-29T17:36:05.910Z,22.75
2018-12-29T17:38:34.313Z,22.50
2018-12-29T17:41:03.290Z,21.57
2018-12-29T17:43:31.818Z,20.02
2018-12-29T17:46:00.304Z,22.87
2018-12-29T17:48:28.887Z,20.32
2018-12-29T17:50:57.302Z,22.17
2018-12-29T17:53:26.215Z,18.32
2018-12-29T17:55:54.709Z,20.15
2018-12-29T17:58:23.138Z,18.90
2018-12-29T18:00:51.746Z,20.45
2018-12-29T18:03:20.217Z,17.12
2018-12-29T18:05:49.049Z,17.48
2018-12-29T18:08:17.577Z,18.73
2018-12-29T18:10:46.056Z,17.42
2018-12-29T18:13:14.463Z,19.77
2018-12-29T18:15:42.938Z,18.02
2018-12-29T18:18:11.365Z,17.92
2018-12-29T18:20:40.042Z,17.10
2018-12-29T18:23:08.694Z,20.02
2018-12-29T18:25:40.402Z,19.07
2018-12-29T18:28:08.821Z,19.95
2018-12-29T18:30:37.500Z,17.10
2018-12-29T18:33:05.909Z,18.48
2018-12-29T18:35:34.386Z,18.00
2018-12-29T18:38:02.848Z,17.17
2018-12-29T18:40:31.498Z,16.50
2018-12-29T18:43:00.180Z,15.98
2018-12-29T18:45:28.975Z,17.12
2018-12-29T18:47:57.466Z,15.60
2018-12-29T18:50:25.858Z,19.75
2018-12-29T18:52:54.257Z,20.92
2018-12-29T18:55:22.750Z,17.30
2018-12-29T18:57:51.429Z,16.97
2018-12-29T19:00:20.152Z,15.28
2018-12-29T19:02:51.600Z,13.93
2018-12-29T19:05:20.245Z,12.65
2018-12-29T19:07:49.067Z,13.50
2018-12-29T19:10:17.470Z,17.52
2018-12-29T19:12:45.878Z,15.35
2018-12-29T19:15:14.273Z,14.53
2018-12-29T19:17:43.098Z,12.43
2018-12-29T19:20:11.865Z,13.98
2018-12-29T19:22:41.683Z,13.93
2018-12-29T19:25:10.070Z,14.18
2018-12-29T19:27:38.710Z,13.88
2018-12-29T19:30:07.803Z,14.03
2018-12-29T19:32:36.209Z,12.82
2018-12-29T19:35:05.329Z,13.25
2018-12-29T19:37:36.906Z,15.58
2018-12-29T19:40:07.861Z,13.83
2018-12-29T19:42:41.451Z,14.45
2018-12-29T19:45:10.247Z,14.70
2018-12-29T19:47:41.720Z,14.43
2018-12-29T19:50:11.034Z,13.20
2018-12-29T19:52:39.685Z,14.80
2018-12-29T19:55:10.145Z,13.28
2018-12-29T19:57:41.611Z,13.93
2018-12-29T20:00:10.902Z,13.43
2018-12-29T20:02:40.394Z,11.68
2018-12-29T20:05:09.228Z,11.60
2018-12-29T20:07:46.262Z,12.50
2018-12-29T20:10:12.049Z,12.40
2018-12-29T20:12:41.790Z,11.73
2018-12-29T20:15:11.861Z,18.60
2018-12-29T20:17:40.505Z,16.75
2018-12-29T20:20:12.428Z,18.50
2018-12-29T20:22:40.749Z,19.57
2018-12-29T20:25:09.224Z,18.82
2018-12-29T20:27:37.735Z,19.40
2018-12-29T20:30:10.464Z,22.32
2018-12-29T20:32:39.292Z,22.30
2018-12-29T20:35:07.910Z,21.95
2018-12-29T20:37:44.079Z,21.62
2018-12-29T20:40:15.453Z,19.45
2018-12-29T20:42:48.762Z,19.12
2018-12-29T20:45:17.322Z,19.42
2018-12-29T20:47:48.958Z,21.48
2018-12-29T20:50:17.434Z,18.45
2018-12-29T20:52:46.104Z,20.97
2018-12-29T20:55:14.777Z,19.98
2018-12-29T20:57:45.715Z,21.68
2018-12-29T21:00:15.794Z,19.00
2018-12-29T21:02:44.821Z,19.98
2018-12-29T21:05:14.989Z,21.17
2018-12-29T21:07:49.123Z,20.62
2018-12-29T21:10:23.870Z,20.43
2018-12-29T21:12:52.402Z,21.25
2018-12-29T21:15:20.942Z,20.77
2018-12-29T21:17:52.242Z,23.18
2018-12-29T21:20:20.811Z,22.10
2018-12-29T21:22:49.340Z,25.08
2018-12-29T21:28:07.054Z,23.77
2018-12-29T21:30:35.825Z,25.57
2018-12-29T21:33:04.525Z,25.88
2018-12-29T21:35:33.261Z,23.95
2018-12-29T21:38:01.991Z,24.72
2018-12-29T21:40:30.395Z,23.30
2018-12-29T21:42:58.781Z,22.45
2018-12-29T21:45:27.214Z,23.05
2018-12-29T21:47:55.607Z,21.07
2018-12-29T21:50:25.448Z,22.05
2018-12-29T21:52:54.205Z,20.37
2018-12-29T21:55:22.706Z,19.55
2018-12-29T21:57:51.346Z,22.00
2018-12-29T22:00:19.835Z,20.95
2018-12-29T22:02:48.768Z,20.43
2018-12-29T22:05:17.168Z,20.17
2018-12-29T22:07:45.585Z,19.32
2018-12-29T22:10:14.220Z,20.65
2018-12-29T22:12:42.625Z,19.17
2018-12-29T22:15:11.022Z,19.05
2018-12-29T22:17:39.413Z,20.50
2018-12-29T22:20:08.479Z,22.20
2018-12-29T22:22:37.214Z,17.37
2018-12-29T22:25:05.721Z,15.08
2018-12-29T22:27:34.154Z,15.93
2018-12-29T22:30:02.853Z,13.80
2018-12-29T22:32:31.261Z,15.05
2018-12-29T22:34:59.845Z,14.83
2018-12-29T22:37:28.309Z,16.57
2018-12-29T22:39:56.733Z,15.35
2018-12-29T22:42:26.450Z,15.25
2018-12-29T22:44:54.837Z,15.63
2018-12-29T22:47:23.774Z,12.73
2018-12-29T22:49:52.178Z,11.85
2018-12-29T22:52:20.594Z,12.82
2018-12-29T22:54:49.098Z,12.20
2018-12-29T22:57:19.086Z,10.45
2018-12-29T22:59:49.078Z,10.00
2018-12-29T23:02:17.498Z,9.25
2018-12-29T23:04:45.893Z,9.10
2018-12-29T23:07:14.969Z,6.83
2018-12-29T23:09:45.317Z,8.10
2018-12-29T23:12:13.714Z,9.13
2018-12-29T23:14:43.645Z,8.40
2018-12-29T23:17:12.070Z,14.65
2018-12-29T23:19:40.470Z,11.53
2018-12-29T23:22:08.874Z,11.60
2018-12-29T23:24:37.476Z,11.85
2018-12-29T23:27:05.917Z,12.47
2018-12-29T23:29:34.410Z,10.32
2018-12-29T23:32:02.805Z,7.33
2018-12-29T23:34:31.517Z,7.50
2018-12-29T23:36:59.917Z,7.20
2018-12-29T23:39:29.017Z,7.08
2018-12-29T23:41:58.033Z,6.72
2018-12-29T23:44:26.502Z,7.28
2018-12-29T23:46:54.897Z,4.90
2018-12-29T23:49:23.679Z,4.12
2018-12-29T23:51:52.445Z,4.50
2018-12-29T23:54:20.837Z,3.55
2018-12-29T23:56:49.740Z,4.30
2018-12-29T23:59:18.751Z,3.60
